createdAt,value
2018-03-24T00:00:12.611Z,2.00
2018-03-24T00:02:40.911Z,2.00
2018-03-24T00:05:09.183Z,2.00
2018-03-24T00:07:37.583Z,1.90
2018-03-24T00:10:05.836Z,2.00
2018-03-24T00:12:34.108Z,2.00
2018-03-24T00:15:02.439Z,2.00
2018-03-24T00:17:30.674Z,1.80
2018-03-24T00:19:58.939Z,1.70
2018-03-24T00:22:27.217Z,1.70
2018-03-24T00:24:55.520Z,1.50
2018-03-24T00:27:23.783Z,1.50
2018-03-24T00:29:52.051Z,1.50
2018-03-24T00:32:20.289Z,1.50
2018-03-24T00:34:49.370Z,1.50
2018-03-24T00:37:17.640Z,1.50
2018-03-24T00:39:45.915Z,1.40
2018-03-24T00:42:15.271Z,1.30
2018-03-24T00:44:43.509Z,1.30
2018-03-24T00:47:12.632Z,1.40
2018-03-24T00:49:41.663Z,1.40
2018-03-24T00:52:09.918Z,1.30
2018-03-24T00:54:38.174Z,1.30
2018-03-24T00:57:06.434Z,1.20
2018-03-24T00:59:35.437Z,1.20
2018-03-24T01:02:04.447Z,1.20
2018-03-24T01:04:32.710Z,1.20
2018-03-24T01:07:01.497Z,1.20
2018-03-24T01:09:29.785Z,1.10
2018-03-24T01:11:58.078Z,1.10
2018-03-24T01:14:26.324Z,1.10
2018-03-24T01:16:55.352Z,1.20
2018-03-24T01:19:23.627Z,1.20
2018-03-24T01:21:51.908Z,1.10
2018-03-24T01:24:20.159Z,1.10
2018-03-24T01:26:48.437Z,1.10
2018-03-24T01:29:16.722Z,1.10
2018-03-24T01:31:45.016Z,1.00
2018-03-24T01:34:13.266Z,0.90
2018-03-24T01:36:42.329Z,0.90
2018-03-24T01:39:10.575Z,0.90
2018-03-24T01:41:38.834Z,1.00
2018-03-24T01:44:07.123Z,0.90
2018-03-24T01:46:35.394Z,0.90
2018-03-24T01:49:03.646Z,0.90
2018-03-24T01:51:31.940Z,0.90
2018-03-24T01:54:05.986Z,1.00
2018-03-24T01:56:34.268Z,1.00
2018-03-24T01:59:02.506Z,1.00
2018-03-24T02:01:30.778Z,1.00
2018-03-24T02:03:59.792Z,0.90
2018-03-24T02:06:28.071Z,0.90
2018-03-24T02:08:56.389Z,0.90
2018-03-24T02:11:24.667Z,0.80
2018-03-24T02:13:52.964Z,0.80
2018-03-24T02:16:21.194Z,0.80
2018-03-24T02:18:49.469Z,0.80
2018-03-24T02:21:25.558Z,0.80
2018-03-24T02:23:53.831Z,0.80
2018-03-24T02:26:22.068Z,0.80
2018-03-24T02:28:50.353Z,0.80
2018-03-24T02:31:19.377Z,0.90
2018-03-24T02:33:47.638Z,0.90
2018-03-24T02:36:15.883Z,0.80
2018-03-24T02:38:44.145Z,0.90
2018-03-24T02:41:13.155Z,0.90
2018-03-24T02:43:41.456Z,0.80
2018-03-24T02:46:09.696Z,1.00
2018-03-24T02:48:37.962Z,1.00
2018-03-24T02:51:06.225Z,1.00
2018-03-24T02:53:34.494Z,1.00
2018-03-24T02:56:04.255Z,1.00
2018-03-24T02:58:33.266Z,1.10
2018-03-24T03:01:01.526Z,1.10
2018-03-24T03:03:29.801Z,1.10
2018-03-24T03:05:58.077Z,1.10
2018-03-24T03:08:27.106Z,1.00
2018-03-24T03:10:55.352Z,1.00
2018-03-24T03:13:23.616Z,1.00
2018-03-24T03:15:51.886Z,1.00
2018-03-24T03:18:20.898Z,1.00
2018-03-24T03:20:50.173Z,0.90
2018-03-24T03:23:18.447Z,1.00
2018-03-24T03:25:47.497Z,1.00
2018-03-24T03:28:16.609Z,1.00
2018-03-24T03:30:47.446Z,1.00
2018-03-24T03:33:15.726Z,1.00
2018-03-24T03:35:43.999Z,1.10
2018-03-24T03:38:12.267Z,1.20
2018-03-24T03:40:40.590Z,1.30
2018-03-24T03:43:08.831Z,1.20
2018-03-24T03:45:37.079Z,1.30
2018-03-24T03:48:05.338Z,1.40
2018-03-24T03:50:34.375Z,1.30
2018-03-24T03:53:02.670Z,1.30
2018-03-24T03:55:30.903Z,1.30
2018-03-24T03:57:59.166Z,1.50
2018-03-24T04:00:28.191Z,1.60
2018-03-24T04:02:56.434Z,1.60
2018-03-24T04:05:25.469Z,1.80
2018-03-24T04:07:53.739Z,1.80
2018-03-24T04:10:22.017Z,1.80
2018-03-24T04:12:50.276Z,2.00
2018-03-24T04:15:19.297Z,1.80
2018-03-24T04:17:47.559Z,1.70
2018-03-24T04:20:15.812Z,1.70
2018-03-24T04:22:44.840Z,1.60
2018-03-24T04:25:13.094Z,1.60
2018-03-24T04:27:41.357Z,1.60
2018-03-24T04:30:10.399Z,1.60
2018-03-24T04:32:38.653Z,1.60
2018-03-24T04:35:07.015Z,1.60
2018-03-24T04:37:35.254Z,1.60
2018-03-24T04:40:03.536Z,1.60
2018-03-24T04:42:31.816Z,1.70
2018-03-24T04:45:00.049Z,1.70
2018-03-24T04:47:28.306Z,1.60
2018-03-24T04:49:57.305Z,1.60
2018-03-24T04:52:25.583Z,1.60
2018-03-24T04:54:53.836Z,1.50
2018-03-24T04:57:22.122Z,1.40
2018-03-24T04:59:50.344Z,1.20
2018-03-24T05:02:18.609Z,1.20
2018-03-24T05:04:46.861Z,1.30
2018-03-24T05:07:15.923Z,1.00
2018-03-24T05:09:44.154Z,1.00
2018-03-24T05:12:12.397Z,1.00
2018-03-24T05:14:40.706Z,0.90
2018-03-24T05:17:08.988Z,1.00
2018-03-24T05:19:37.241Z,0.90
2018-03-24T05:22:06.287Z,0.90
2018-03-24T05:24:34.525Z,0.90
2018-03-24T05:27:02.801Z,0.90
2018-03-24T05:29:31.060Z,0.90
2018-03-24T05:32:00.095Z,0.90
2018-03-24T05:34:28.359Z,0.90
2018-03-24T05:36:56.611Z,0.80
2018-03-24T05:39:25.621Z,0.80
2018-03-24T05:41:53.986Z,0.80
2018-03-24T05:44:22.206Z,0.80
2018-03-24T05:46:50.506Z,0.80
2018-03-24T05:49:18.743Z,0.70
2018-03-24T05:51:46.986Z,0.70
2018-03-24T05:54:16.056Z,0.90
2018-03-24T05:56:44.319Z,0.90
2018-03-24T05:59:12.550Z,1.00
2018-03-24T06:01:41.576Z,1.10
2018-03-24T06:04:09.829Z,1.10
2018-03-24T06:06:38.088Z,1.10
2018-03-24T06:09:07.114Z,1.00
2018-03-24T06:11:35.386Z,1.00
2018-03-24T06:14:03.656Z,1.00
2018-03-24T06:16:32.669Z,1.10
2018-03-24T06:19:00.921Z,1.10
2018-03-24T06:21:30.821Z,1.20
2018-03-24T06:23:59.847Z,1.30
2018-03-24T06:26:29.674Z,1.30
2018-03-24T06:28:57.906Z,1.30
2018-03-24T06:31:27.570Z,1.50
2018-03-24T06:33:55.803Z,1.50
2018-03-24T06:36:24.832Z,1.60
2018-03-24T06:38:53.099Z,1.60
2018-03-24T06:41:21.349Z,1.70
2018-03-24T06:43:50.389Z,1.90
2018-03-24T06:46:18.673Z,1.90
2018-03-24T06:48:46.915Z,2.00
2018-03-24T06:51:15.212Z,2.10
2018-03-24T06:53:43.486Z,2.20
2018-03-24T06:56:11.749Z,2.30
2018-03-24T06:58:40.847Z,2.70
2018-03-24T07:01:09.887Z,2.80
2018-03-24T07:03:38.153Z,2.80
2018-03-24T07:06:06.410Z,2.80
2018-03-24T07:08:34.685Z,2.90
2018-03-24T07:11:02.932Z,3.00
2018-03-24T07:13:31.311Z,3.20
2018-03-24T07:16:00.316Z,3.20
2018-03-24T07:18:29.366Z,3.30
2018-03-24T07:20:57.612Z,3.20
2018-03-24T07:23:25.878Z,3.30
2018-03-24T07:25:54.313Z,3.40
2018-03-24T07:28:22.569Z,3.50
2018-03-24T07:30:50.833Z,3.60
2018-03-24T07:33:19.098Z,3.80
2018-03-24T07:35:47.359Z,3.80
2018-03-24T07:38:16.426Z,4.30
2018-03-24T07:40:44.680Z,4.30
2018-03-24T07:43:13.014Z,4.60
2018-03-24T07:45:41.246Z,4.80
2018-03-24T07:48:09.506Z,4.90
2018-03-24T07:50:37.750Z,5.10
2018-03-24T07:53:06.086Z,5.20
2018-03-24T07:55:34.315Z,5.40
2018-03-24T07:58:02.605Z,5.60
2018-03-24T08:00:31.635Z,5.90
2018-03-24T08:02:59.879Z,5.90
2018-03-24T08:05:28.158Z,6.10
2018-03-24T08:07:56.404Z,6.20
2018-03-24T08:10:24.677Z,6.40
2018-03-24T08:12:53.687Z,6.60
2018-03-24T08:15:21.938Z,6.60
2018-03-24T08:17:50.680Z,6.70
2018-03-24T08:20:18.904Z,6.80
2018-03-24T08:22:47.182Z,6.90
2018-03-24T08:25:15.452Z,7.00
2018-03-24T08:27:43.720Z,7.20
2018-03-24T08:30:11.992Z,7.20
2018-03-24T08:32:40.243Z,7.20
2018-03-24T08:35:08.500Z,7.30
2018-03-24T08:37:36.775Z,7.30
2018-03-24T08:40:05.055Z,7.30
2018-03-24T08:42:33.303Z,7.30
2018-03-24T08:45:02.364Z,7.40
2018-03-24T08:47:30.646Z,7.40
2018-03-24T08:49:59.045Z,7.50
2018-03-24T08:52:27.285Z,7.60
2018-03-24T08:54:55.535Z,7.50
2018-03-24T08:57:23.787Z,7.50
2018-03-24T08:59:52.050Z,7.70
2018-03-24T09:02:20.311Z,7.90
2018-03-24T09:04:49.478Z,8.00
2018-03-24T09:07:17.759Z,8.10
2018-03-24T09:09:46.017Z,8.20
2018-03-24T09:12:14.319Z,8.30
2018-03-24T09:14:42.565Z,8.40
2018-03-24T09:17:11.966Z,8.70
2018-03-24T09:19:40.287Z,8.70
2018-03-24T09:22:08.568Z,8.70
2018-03-24T09:24:36.822Z,8.70
2018-03-24T09:27:05.917Z,9.00
2018-03-24T09:29:34.541Z,8.90
2018-03-24T09:32:02.819Z,9.00
2018-03-24T09:34:31.106Z,9.00
2018-03-24T09:36:59.349Z,9.10
2018-03-24T09:39:27.642Z,9.30
2018-03-24T09:41:55.910Z,9.40
2018-03-24T09:44:24.170Z,9.60
2018-03-24T09:46:52.416Z,9.60
2018-03-24T09:49:20.950Z,9.70
2018-03-24T09:51:49.216Z,9.80
2018-03-24T09:54:17.450Z,9.90
2018-03-24T09:56:46.480Z,10.00
2018-03-24T09:59:14.815Z,10.00
2018-03-24T10:01:43.149Z,10.10
2018-03-24T10:04:11.409Z,10.10
2018-03-24T10:06:39.683Z,10.30
2018-03-24T10:09:07.949Z,10.60
2018-03-24T10:11:36.969Z,10.50
2018-03-24T10:14:05.250Z,10.50
2018-03-24T10:16:33.528Z,10.60
2018-03-24T10:19:01.813Z,10.50
2018-03-24T10:24:43.328Z,10.80
2018-03-24T10:27:11.586Z,10.80
2018-03-24T10:29:39.879Z,10.70
2018-03-24T10:32:08.145Z,10.90
2018-03-24T10:34:36.443Z,11.10
2018-03-24T10:37:04.671Z,11.20
2018-03-24T10:39:33.675Z,11.40
2018-03-24T10:42:01.958Z,11.40
2018-03-24T10:44:30.220Z,11.30
2018-03-24T10:46:59.278Z,11.10
2018-03-24T10:49:27.530Z,11.10
2018-03-24T10:51:55.815Z,11.20
2018-03-24T10:54:24.097Z,11.10
2018-03-24T10:56:52.390Z,11.00
2018-03-24T10:59:20.637Z,10.90
2018-03-24T11:01:48.928Z,10.90
2018-03-24T11:04:17.471Z,11.10
2018-03-24T11:06:47.286Z,11.40
2018-03-24T11:09:15.546Z,11.40
2018-03-24T11:11:44.610Z,11.60
2018-03-24T11:14:12.853Z,11.60
2018-03-24T11:16:41.928Z,11.90
2018-03-24T11:19:10.999Z,12.20
2018-03-24T11:21:39.276Z,12.10
2018-03-24T11:24:07.510Z,12.30
2018-03-24T11:26:35.761Z,12.20
2018-03-24T11:29:04.069Z,12.30
2018-03-24T11:31:33.128Z,12.30
2018-03-24T11:34:02.169Z,12.20
2018-03-24T11:36:30.480Z,12.10
2018-03-24T11:38:58.693Z,12.20
2018-03-24T11:41:26.959Z,12.20
2018-03-24T11:43:55.224Z,12.20
2018-03-24T11:46:24.282Z,11.90
2018-03-24T11:48:52.585Z,11.90
2018-03-24T11:51:20.867Z,11.80
2018-03-24T11:53:51.980Z,11.80
2018-03-24T11:56:20.270Z,11.80
2018-03-24T11:58:48.551Z,11.70
2018-03-24T12:01:16.817Z,11.60
2018-03-24T12:03:45.858Z,11.60
2018-03-24T12:06:14.884Z,11.70
2018-03-24T12:08:43.140Z,11.60
2018-03-24T12:11:11.457Z,11.80
2018-03-24T12:13:39.734Z,11.70
2018-03-24T12:16:08.025Z,11.60
2018-03-24T12:18:36.269Z,11.40
2018-03-24T12:21:04.600Z,11.50
2018-03-24T12:23:32.873Z,11.40
2018-03-24T12:26:01.361Z,11.70
2018-03-24T12:28:29.641Z,12.00
2018-03-24T12:30:57.887Z,11.90
2018-03-24T12:33:26.203Z,12.10
2018-03-24T12:35:54.535Z,12.30
2018-03-24T12:38:23.180Z,12.50
2018-03-24T12:40:52.252Z,12.30
2018-03-24T12:43:20.506Z,12.30
2018-03-24T12:45:48.794Z,12.40
2018-03-24T12:48:17.084Z,12.40
2018-03-24T12:50:46.129Z,12.00
2018-03-24T12:53:14.385Z,11.90
2018-03-24T12:55:42.692Z,11.90
2018-03-24T12:58:10.968Z,11.90
2018-03-24T13:00:39.274Z,12.20
2018-03-24T13:03:07.538Z,12.30
2018-03-24T13:05:36.611Z,12.40
2018-03-24T13:08:04.895Z,12.40
2018-03-24T13:10:33.163Z,11.90
2018-03-24T13:13:01.439Z,11.90
2018-03-24T13:15:29.705Z,12.10
2018-03-24T13:17:57.984Z,12.20
2018-03-24T13:20:26.994Z,12.20
2018-03-24T13:22:55.274Z,12.20
2018-03-24T13:25:23.582Z,12.40
2018-03-24T13:27:51.844Z,12.30
2018-03-24T13:30:20.106Z,12.20
2018-03-24T13:32:48.379Z,12.20
2018-03-24T13:35:16.691Z,12.20
2018-03-24T13:37:45.398Z,12.10
2018-03-24T13:40:13.690Z,12.20
2018-03-24T13:42:42.793Z,12.30
2018-03-24T13:45:11.094Z,12.30
2018-03-24T13:47:40.118Z,12.50
2018-03-24T13:50:08.384Z,12.50
2018-03-24T13:52:36.704Z,12.60
2018-03-24T13:55:04.982Z,12.70
2018-03-24T13:57:33.256Z,12.50
2018-03-24T14:00:01.517Z,12.60
2018-03-24T14:02:29.783Z,12.40
2018-03-24T14:04:58.063Z,12.20
2018-03-24T14:07:26.381Z,12.20
2018-03-24T14:09:54.637Z,12.30
2018-03-24T14:12:23.672Z,12.50
2018-03-24T14:14:52.017Z,12.50
2018-03-24T14:17:20.731Z,12.50
2018-03-24T14:19:49.012Z,12.40
2018-03-24T14:22:18.054Z,12.20
2018-03-24T14:24:46.424Z,12.20
2018-03-24T14:27:14.734Z,12.20
2018-03-24T14:29:43.036Z,12.00
2018-03-24T14:32:11.354Z,11.90
2018-03-24T14:34:39.627Z,11.70
2018-03-24T14:37:07.929Z,11.50
2018-03-24T14:39:36.184Z,11.50
2018-03-24T14:42:04.489Z,11.40
2018-03-24T14:44:32.763Z,11.50
2018-03-24T14:47:01.067Z,11.60
2018-03-24T14:49:29.407Z,11.60
2018-03-24T14:51:57.645Z,11.50
2018-03-24T14:54:25.946Z,11.50
2018-03-24T14:56:55.047Z,11.40
2018-03-24T14:59:23.374Z,11.40
2018-03-24T15:01:51.655Z,11.40
2018-03-24T15:04:20.885Z,11.50
2018-03-24T15:06:49.945Z,11.20
2018-03-24T15:09:18.231Z,11.20
2018-03-24T15:11:47.282Z,11.20
2018-03-24T15:14:15.598Z,11.10
2018-03-24T15:16:43.882Z,11.10
2018-03-24T15:19:12.164Z,11.00
2018-03-24T15:21:41.456Z,11.00
2018-03-24T15:24:10.477Z,10.90
2018-03-24T15:26:38.787Z,11.10
2018-03-24T15:29:19.011Z,11.10
2018-03-24T15:31:59.256Z,11.20
2018-03-24T15:34:39.381Z,11.20
2018-03-24T15:37:07.634Z,11.30
2018-03-24T15:39:35.926Z,11.30
2018-03-24T15:42:04.206Z,11.40
2018-03-24T15:44:32.516Z,11.40
2018-03-24T15:47:00.823Z,11.30
2018-03-24T15:49:29.122Z,11.20
2018-03-24T15:51:57.475Z,11.20
2018-03-24T15:54:26.538Z,11.10
2018-03-24T15:56:54.784Z,11.10
2018-03-24T15:59:23.086Z,11.00
2018-03-24T16:01:51.392Z,10.90
2018-03-24T16:04:20.029Z,10.90
2018-03-24T16:06:48.336Z,11.00
2018-03-24T16:09:16.589Z,11.00
2018-03-24T16:11:44.880Z,10.90
2018-03-24T16:14:13.178Z,10.90
2018-03-24T16:16:42.308Z,10.90
2018-03-24T16:19:10.602Z,10.90
2018-03-24T16:21:38.936Z,10.90
2018-03-24T16:24:07.220Z,10.90
2018-03-24T16:26:35.512Z,10.90
2018-03-24T16:29:04.528Z,10.80
2018-03-24T16:31:32.816Z,10.80
2018-03-24T16:34:01.088Z,10.80
2018-03-24T16:36:29.387Z,10.80
2018-03-24T16:38:57.696Z,10.70
2018-03-24T16:41:26.751Z,10.60
2018-03-24T16:43:55.060Z,10.60
2018-03-24T16:46:23.334Z,10.60
2018-03-24T16:48:51.621Z,10.50
2018-03-24T16:51:19.886Z,10.50
2018-03-24T16:53:48.116Z,10.50
2018-03-24T16:56:16.439Z,10.50
2018-03-24T16:58:44.803Z,10.50
2018-03-24T17:01:13.943Z,10.20
2018-03-24T17:03:43.005Z,10.10
2018-03-24T17:06:11.308Z,10.10
2018-03-24T17:08:40.334Z,10.00
2018-03-24T17:11:08.626Z,10.00
2018-03-24T17:13:37.030Z,9.90
2018-03-24T17:16:05.282Z,9.90
2018-03-24T17:18:33.595Z,9.80
2018-03-24T17:21:01.898Z,9.80
2018-03-24T17:23:31.091Z,9.80
2018-03-24T17:26:00.262Z,9.80
2018-03-24T17:28:29.367Z,9.80
2018-03-24T17:30:57.685Z,9.80
2018-03-24T17:33:25.925Z,9.80
2018-03-24T17:35:54.317Z,9.70
2018-03-24T17:38:22.619Z,9.70
2018-03-24T17:40:51.675Z,9.60
2018-03-24T17:43:19.939Z,9.60
2018-03-24T17:45:48.767Z,9.50
2018-03-24T17:48:17.053Z,9.40
2018-03-24T17:50:45.361Z,9.20
2018-03-24T17:53:13.643Z,9.00
2018-03-24T17:55:42.680Z,9.00
2018-03-24T17:58:10.894Z,8.90
2018-03-24T18:00:40.055Z,8.60
2018-03-24T18:03:08.424Z,8.60
2018-03-24T18:05:36.787Z,8.50
2018-03-24T18:08:05.818Z,8.40
2018-03-24T18:10:34.859Z,8.30
2018-03-24T18:13:03.519Z,8.30
2018-03-24T18:15:31.780Z,8.20
2018-03-24T18:18:00.551Z,8.00
2018-03-24T18:20:28.952Z,8.00
2018-03-24T18:22:57.216Z,7.80
2018-03-24T18:25:26.033Z,7.60
2018-03-24T18:27:55.933Z,7.30
2018-03-24T18:30:24.389Z,7.30
2018-03-24T18:32:53.101Z,7.40
2018-03-24T18:35:21.414Z,7.30
2018-03-24T18:37:50.464Z,6.90
2018-03-24T18:40:18.768Z,6.80
2018-03-24T18:42:47.072Z,6.60
2018-03-24T18:45:15.376Z,6.50
2018-03-24T18:47:44.605Z,6.50
2018-03-24T18:50:13.654Z,6.30
2018-03-24T18:52:41.937Z,6.30
2018-03-24T18:55:10.669Z,6.30
2018-03-24T18:57:40.070Z,6.10
2018-03-24T19:00:09.128Z,6.00
2018-03-24T19:02:37.622Z,6.00
2018-03-24T19:05:05.913Z,5.90
2018-03-24T19:07:34.648Z,5.80
2018-03-24T19:10:03.695Z,5.70
2018-03-24T19:12:33.128Z,5.60
2018-03-24T19:15:03.022Z,5.50
2018-03-24T19:17:31.586Z,5.50
2018-03-24T19:20:00.621Z,5.50
2018-03-24T19:22:29.605Z,5.20
2018-03-24T19:24:58.104Z,5.20
2018-03-24T19:27:27.276Z,5.00
2018-03-24T19:29:55.526Z,5.00
2018-03-24T19:32:24.520Z,4.90
2018-03-24T19:34:53.694Z,4.90
2018-03-24T19:37:22.346Z,4.80
2018-03-24T19:39:51.397Z,4.70
2018-03-24T19:42:19.927Z,4.60
2018-03-24T19:44:48.958Z,4.40
2018-03-24T19:47:17.277Z,4.40
2018-03-24T19:49:46.176Z,4.30
2018-03-24T19:52:14.778Z,4.30
2018-03-24T19:54:43.835Z,4.20
2018-03-24T19:57:12.119Z,4.20
2018-03-24T19:59:40.390Z,4.10
2018-03-24T20:02:09.013Z,4.10
2018-03-24T20:04:38.423Z,4.10
2018-03-24T20:07:07.929Z,4.00
2018-03-24T20:09:36.333Z,4.00
2018-03-24T20:12:05.910Z,3.90
2018-03-24T20:14:35.423Z,3.80
2018-03-24T20:17:04.503Z,3.70
2018-03-24T20:19:33.203Z,3.70
2018-03-24T20:22:01.561Z,3.70
2018-03-24T20:24:30.108Z,3.60
2018-03-24T20:26:59.488Z,3.60
2018-03-24T20:29:28.288Z,3.50
2018-03-24T20:31:56.650Z,3.50
2018-03-24T20:34:26.100Z,3.50
2018-03-24T20:36:54.427Z,3.40
2018-03-24T20:39:22.703Z,3.30
2018-03-24T20:41:52.203Z,3.30
2018-03-24T20:44:21.306Z,3.30
2018-03-24T20:46:49.851Z,3.30
2018-03-24T20:49:18.146Z,3.20
2018-03-24T20:51:46.459Z,3.10
2018-03-24T20:54:15.477Z,3.00
2018-03-24T20:56:44.232Z,3.00
2018-03-24T20:59:14.150Z,2.90
2018-03-24T21:01:42.451Z,2.80
2018-03-24T21:04:11.478Z,2.70
2018-03-24T21:06:39.805Z,2.70
2018-03-24T21:09:08.157Z,2.70
2018-03-24T21:11:36.431Z,2.80
2018-03-24T21:14:05.705Z,2.80
2018-03-24T21:16:33.982Z,2.70
2018-03-24T21:19:02.265Z,2.60
2018-03-24T21:21:30.649Z,2.50
2018-03-24T21:23:59.831Z,2.50
2018-03-24T21:26:28.171Z,2.50
2018-03-24T21:28:56.641Z,2.50
2018-03-24T21:31:26.222Z,2.70
2018-03-24T21:33:54.639Z,2.80
2018-03-24T21:36:23.712Z,3.00
2018-03-24T21:38:52.333Z,3.00
2018-03-24T21:41:21.379Z,3.20
2018-03-24T21:43:49.774Z,3.10
2018-03-24T21:46:18.038Z,3.20
2018-03-24T21:48:46.382Z,3.30
2018-03-24T21:51:14.676Z,3.40
2018-03-24T21:53:42.986Z,3.40
2018-03-24T21:56:11.304Z,3.50
2018-03-24T21:58:39.765Z,3.50
2018-03-24T22:01:08.019Z,3.50
2018-03-24T22:03:36.893Z,3.40
2018-03-24T22:06:05.155Z,3.40
2018-03-24T22:08:33.416Z,3.40
2018-03-24T22:11:02.479Z,3.40
2018-03-24T22:13:30.756Z,3.40
2018-03-24T22:16:00.053Z,3.40
2018-03-24T22:18:28.355Z,3.40
2018-03-24T22:20:57.415Z,3.30
2018-03-24T22:23:25.678Z,3.30
2018-03-24T22:25:53.973Z,3.30
2018-03-24T22:28:22.218Z,3.30
2018-03-24T22:30:50.524Z,3.40
2018-03-24T22:33:18.833Z,3.30
2018-03-24T22:35:47.081Z,3.30
2018-03-24T22:38:15.361Z,3.30
2018-03-24T22:40:43.648Z,3.30
2018-03-24T22:43:11.901Z,3.20
2018-03-24T22:45:40.197Z,3.20
2018-03-24T22:48:08.480Z,3.20
2018-03-24T22:50:36.753Z,3.10
2018-03-24T22:53:05.081Z,3.10
2018-03-24T22:55:33.891Z,3.00
2018-03-24T22:58:02.159Z,2.90
2018-03-24T23:00:32.086Z,2.90
2018-03-24T23:03:00.384Z,2.90
2018-03-24T23:05:29.593Z,2.80
2018-03-24T23:07:57.887Z,2.70
2018-03-24T23:10:26.138Z,2.70
2018-03-24T23:12:54.435Z,2.70
2018-03-24T23:15:22.745Z,2.70
2018-03-24T23:17:51.051Z,2.60
2018-03-24T23:20:19.303Z,2.60
2018-03-24T23:22:47.591Z,2.60
2018-03-24T23:25:18.555Z,2.60
2018-03-24T23:27:46.848Z,2.60
2018-03-24T23:30:15.105Z,2.60
2018-03-24T23:32:43.381Z,2.60
2018-03-24T23:35:11.889Z,2.60
2018-03-24T23:37:40.164Z,2.60
2018-03-24T23:40:08.437Z,2.50
2018-03-24T23:42:36.695Z,2.60
2018-03-24T23:45:04.980Z,2.60
2018-03-24T23:47:33.317Z,2.60
2018-03-24T23:50:02.387Z,2.50
2018-03-24T23:52:30.647Z,2.50
2018-03-24T23:54:58.901Z,2.50
2018-03-24T23:57:27.173Z,2.50
2018-03-24T23:59:55.413Z,2.50
